WMT6135 LEXJ-LROP
Flight info
| Callsign | WMT6135 |
|---|---|
| Flight time | 3h 11m |
| Altitude | 37000 |
| Route | CALCE M190 SSN P181 URUNA DCT AKEPO DCT MONIX DCT CUERS G7 RUBIT A3 CAPCO DCT MAREL DCT MOGPU DCT EDUGI DCT UNIPA DCT LIKVI DCT VUKI4 DCT ANASA DCT PEMOK T899 TOSVI |
| Aircraft | A21N/M-SDE1E2E3FGIJ1J4RWXY/LB1 |
Departure
| Time | 2026-05-07 18:10 |
|---|---|
| Airport | Seve Ballesteros-Santander Airport (LEXJ) |
Arrival
| Time | 2026-05-07 21:21 |
|---|---|
| Airport | Bucharest Henri Coandă International Airport (LROP) |
| Time | Latitude | Longitude | Altitude | Speed | Heading |
|---|---|---|---|---|---|
| 2026-05-07 17:56 | 43.42382 | -3.82301 | 25 ft | 0 kts | 236° |
| 2026-05-07 18:04 | 43.42382 | -3.82305 | 25 ft | 1 kts | 263° |
| 2026-05-07 18:04 | 43.42407 | -3.82340 | 25 ft | 6 kts | 327° |
| 2026-05-07 18:04 | 43.42464 | -3.82355 | 25 ft | 9 kts | 11° |
| 2026-05-07 18:05 | 43.42528 | -3.82330 | 25 ft | 9 kts | 18° |
| 2026-05-07 18:05 | 43.42593 | -3.82306 | 25 ft | 9 kts | 352° |
| 2026-05-07 18:05 | 43.42637 | -3.82371 | 25 ft | 10 kts | 294° |
| 2026-05-07 18:05 | 43.42663 | -3.82462 | 25 ft | 10 kts | 288° |
| 2026-05-07 18:06 | 43.42686 | -3.82557 | 25 ft | 10 kts | 289° |
| 2026-05-07 18:06 | 43.42711 | -3.82653 | 25 ft | 10 kts | 289° |
| 2026-05-07 18:06 | 43.42737 | -3.82752 | 25 ft | 11 kts | 290° |
| 2026-05-07 18:06 | 43.42765 | -3.82852 | 25 ft | 11 kts | 291° |
| 2026-05-07 18:07 | 43.42793 | -3.82952 | 25 ft | 11 kts | 291° |
| 2026-05-07 18:07 | 43.42839 | -3.83037 | 25 ft | 11 kts | 326° |
| 2026-05-07 18:07 | 43.42919 | -3.83090 | 25 ft | 13 kts | 335° |
| 2026-05-07 18:07 | 43.43001 | -3.83147 | 25 ft | 13 kts | 317° |
| 2026-05-07 18:08 | 43.43040 | -3.83256 | 25 ft | 12 kts | 270° |
| 2026-05-07 18:08 | 43.43035 | -3.83371 | 25 ft | 11 kts | 303° |
| 2026-05-07 18:08 | 43.43065 | -3.83352 | 25 ft | 5 kts | 96° |
| 2026-05-07 18:08 | 43.43060 | -3.83327 | 25 ft | 0 kts | 109° |
| 2026-05-07 18:09 | 43.43052 | -3.83295 | 25 ft | 21 kts | 110° |
| 2026-05-07 18:09 | 43.42909 | -3.82756 | 25 ft | 95 kts | 110° |
| 2026-05-07 18:09 | 43.42608 | -3.81635 | 25 ft | 154 kts | 111° |
| 2026-05-07 18:09 | 43.42177 | -3.80075 | 207 ft | 184 kts | 111° |
| 2026-05-07 18:10 | 43.41727 | -3.78456 | 935 ft | 181 kts | 109° |
| 2026-05-07 18:10 | 43.41330 | -3.76849 | 1584 ft | 182 kts | 108° |
| 2026-05-07 18:10 | 43.40906 | -3.75126 | 1941 ft | 198 kts | 109° |
| 2026-05-07 18:10 | 43.40438 | -3.73269 | 2287 ft | 215 kts | 109° |
| 2026-05-07 18:11 | 43.39910 | -3.71207 | 2584 ft | 237 kts | 109° |
| 2026-05-07 18:11 | 43.39634 | -3.69692 | 2820 ft | 250 kts | 93° |
| 2026-05-07 18:11 | 43.40297 | -3.66602 | 3539 ft | 264 kts | 56° |
| 2026-05-07 18:11 | 43.41214 | -3.64448 | 4314 ft | 265 kts | 70° |
| 2026-05-07 18:12 | 43.41444 | -3.61954 | 5021 ft | 268 kts | 98° |
| 2026-05-07 18:12 | 43.40973 | -3.59506 | 5759 ft | 270 kts | 109° |
| 2026-05-07 18:12 | 43.40362 | -3.57059 | 6464 ft | 273 kts | 108° |
| 2026-05-07 18:12 | 43.39808 | -3.54551 | 7164 ft | 276 kts | 105° |
| 2026-05-07 18:13 | 43.39327 | -3.51997 | 7857 ft | 279 kts | 103° |
| 2026-05-07 18:13 | 43.38891 | -3.49387 | 8535 ft | 282 kts | 102° |
| 2026-05-07 18:13 | 43.38484 | -3.46768 | 9189 ft | 284 kts | 101° |
| 2026-05-07 18:13 | 43.38085 | -3.44098 | 9833 ft | 287 kts | 101° |
| 2026-05-07 18:14 | 43.37687 | -3.41390 | 10416 ft | 292 kts | 101° |
| 2026-05-07 18:14 | 43.37276 | -3.38583 | 10708 ft | 307 kts | 101° |
| 2026-05-07 18:14 | 43.36850 | -3.35676 | 11031 ft | 320 kts | 101° |
| 2026-05-07 18:14 | 43.36410 | -3.32672 | 11591 ft | 324 kts | 102° |
| 2026-05-07 18:15 | 43.35960 | -3.29621 | 12214 ft | 326 kts | 102° |
| 2026-05-07 18:15 | 43.35507 | -3.26569 | 12798 ft | 329 kts | 102° |
| 2026-05-07 18:15 | 43.35048 | -3.23484 | 13366 ft | 332 kts | 102° |
| 2026-05-07 18:15 | 43.34588 | -3.20390 | 13922 ft | 334 kts | 102° |
| 2026-05-07 18:16 | 43.34120 | -3.17250 | 14469 ft | 337 kts | 102° |
| 2026-05-07 18:16 | 43.33646 | -3.14075 | 15007 ft | 340 kts | 102° |
| 2026-05-07 18:16 | 43.33176 | -3.10926 | 15525 ft | 342 kts | 102° |
| 2026-05-07 18:16 | 43.32692 | -3.07688 | 16042 ft | 345 kts | 102° |
| 2026-05-07 18:17 | 43.32206 | -3.04452 | 16544 ft | 348 kts | 102° |
| 2026-05-07 18:17 | 43.31720 | -3.01217 | 17030 ft | 350 kts | 102° |
| 2026-05-07 18:17 | 43.31224 | -2.97932 | 17509 ft | 353 kts | 102° |
| 2026-05-07 18:17 | 43.30766 | -2.94642 | 17971 ft | 355 kts | 98° |
| 2026-05-07 18:18 | 43.30494 | -2.91280 | 18426 ft | 358 kts | 93° |
| 2026-05-07 18:18 | 43.30436 | -2.87827 | 18878 ft | 360 kts | 89° |
| 2026-05-07 18:18 | 43.30468 | -2.84423 | 19313 ft | 362 kts | 89° |
| 2026-05-07 18:18 | 43.30514 | -2.80949 | 19741 ft | 365 kts | 89° |
| 2026-05-07 18:19 | 43.30558 | -2.77462 | 20160 ft | 367 kts | 89° |
| 2026-05-07 18:19 | 43.30598 | -2.73922 | 20577 ft | 370 kts | 89° |
| 2026-05-07 18:19 | 43.30636 | -2.70384 | 20982 ft | 372 kts | 89° |
| 2026-05-07 18:19 | 43.30669 | -2.66872 | 21370 ft | 374 kts | 89° |
| 2026-05-07 18:20 | 43.30702 | -2.63284 | 21759 ft | 376 kts | 89° |
| 2026-05-07 18:20 | 43.30733 | -2.59703 | 22136 ft | 379 kts | 89° |
| 2026-05-07 18:20 | 43.30763 | -2.56067 | 22508 ft | 381 kts | 89° |
| 2026-05-07 18:20 | 43.30792 | -2.52458 | 22868 ft | 383 kts | 89° |
| 2026-05-07 18:21 | 43.30820 | -2.48761 | 23227 ft | 385 kts | 89° |
| 2026-05-07 18:21 | 43.30846 | -2.45095 | 23574 ft | 387 kts | 89° |
| 2026-05-07 18:21 | 43.30872 | -2.41414 | 23914 ft | 389 kts | 89° |
| 2026-05-07 18:21 | 43.30896 | -2.37708 | 24247 ft | 391 kts | 89° |
| 2026-05-07 18:22 | 43.30919 | -2.33960 | 24577 ft | 393 kts | 90° |
| 2026-05-07 18:22 | 43.30934 | -2.31482 | 24790 ft | 394 kts | 90° |
| 2026-05-07 18:22 | 43.30963 | -2.26432 | 25214 ft | 397 kts | 90° |
| 2026-05-07 18:22 | 43.30983 | -2.22588 | 25527 ft | 399 kts | 90° |
| 2026-05-07 18:23 | 43.31002 | -2.18797 | 25828 ft | 401 kts | 90° |
| 2026-05-07 18:23 | 43.31020 | -2.14928 | 26128 ft | 403 kts | 90° |
| 2026-05-07 18:23 | 43.31036 | -2.11090 | 26417 ft | 404 kts | 90° |
| 2026-05-07 18:23 | 43.31052 | -2.07208 | 26699 ft | 406 kts | 90° |
| 2026-05-07 18:24 | 43.31066 | -2.03326 | 26975 ft | 408 kts | 90° |
| 2026-05-07 18:24 | 43.31079 | -1.99411 | 27247 ft | 410 kts | 90° |
| 2026-05-07 18:24 | 43.31090 | -1.95466 | 27516 ft | 412 kts | 90° |
| 2026-05-07 18:24 | 43.31099 | -1.91545 | 27779 ft | 413 kts | 90° |
| 2026-05-07 18:25 | 43.31141 | -1.87563 | 28036 ft | 415 kts | 85° |
| 2026-05-07 18:25 | 43.31612 | -1.83686 | 28268 ft | 417 kts | 74° |
| 2026-05-07 18:25 | 43.32621 | -1.79949 | 28529 ft | 418 kts | 66° |
| 2026-05-07 18:25 | 43.33818 | -1.76333 | 28782 ft | 420 kts | 66° |
| 2026-05-07 18:26 | 43.34794 | -1.72549 | 29005 ft | 422 kts | 76° |
| 2026-05-07 18:26 | 43.35255 | -1.68522 | 29233 ft | 423 kts | 87° |
| 2026-05-07 18:26 | 43.35299 | -1.64482 | 29489 ft | 424 kts | 90° |
| 2026-05-07 18:26 | 43.35250 | -1.60428 | 29725 ft | 426 kts | 91° |
| 2026-05-07 18:27 | 43.35176 | -1.56377 | 29950 ft | 428 kts | 91° |
| 2026-05-07 18:27 | 43.35095 | -1.52288 | 30177 ft | 429 kts | 91° |
| 2026-05-07 18:27 | 43.35012 | -1.48185 | 30403 ft | 431 kts | 91° |
| 2026-05-07 18:27 | 43.34928 | -1.44054 | 30626 ft | 432 kts | 91° |
| 2026-05-07 18:28 | 43.34844 | -1.39948 | 30843 ft | 434 kts | 91° |
| 2026-05-07 18:28 | 43.34758 | -1.35789 | 31059 ft | 435 kts | 91° |
| 2026-05-07 18:28 | 43.34671 | -1.31650 | 31268 ft | 437 kts | 92° |
| 2026-05-07 18:28 | 43.34582 | -1.27480 | 31474 ft | 438 kts | 92° |
| 2026-05-07 18:29 | 43.34491 | -1.23295 | 31676 ft | 440 kts | 92° |
| 2026-05-07 18:29 | 43.34399 | -1.19074 | 31876 ft | 441 kts | 92° |
| 2026-05-07 18:29 | 43.34305 | -1.14878 | 32069 ft | 442 kts | 92° |
| 2026-05-07 18:29 | 43.34208 | -1.10614 | 32262 ft | 444 kts | 92° |
| 2026-05-07 18:30 | 43.34111 | -1.06417 | 32448 ft | 445 kts | 92° |
| 2026-05-07 18:30 | 43.34012 | -1.02181 | 32629 ft | 446 kts | 92° |
| 2026-05-07 18:30 | 43.33910 | -0.97875 | 32843 ft | 447 kts | 92° |
| 2026-05-07 18:30 | 43.33808 | -0.93657 | 33100 ft | 446 kts | 92° |
| 2026-05-07 18:31 | 43.33703 | -0.89392 | 33361 ft | 445 kts | 92° |
| 2026-05-07 18:31 | 43.33599 | -0.85178 | 33606 ft | 444 kts | 92° |
| 2026-05-07 18:31 | 43.33492 | -0.80962 | 33841 ft | 444 kts | 92° |
| 2026-05-07 18:31 | 43.33382 | -0.76681 | 34074 ft | 443 kts | 92° |
| 2026-05-07 18:32 | 43.33274 | -0.72511 | 34298 ft | 443 kts | 92° |
| 2026-05-07 18:32 | 43.33162 | -0.68256 | 34523 ft | 442 kts | 92° |
| 2026-05-07 18:32 | 43.33050 | -0.64078 | 34741 ft | 442 kts | 92° |
| 2026-05-07 18:32 | 43.32934 | -0.59804 | 34960 ft | 441 kts | 92° |
| 2026-05-07 18:33 | 43.32819 | -0.55598 | 35170 ft | 441 kts | 92° |
| 2026-05-07 18:33 | 43.32703 | -0.51429 | 35374 ft | 440 kts | 92° |
| 2026-05-07 18:33 | 43.32584 | -0.47224 | 35571 ft | 440 kts | 92° |
| 2026-05-07 18:33 | 43.32466 | -0.43060 | 35759 ft | 440 kts | 92° |
| 2026-05-07 18:34 | 43.32344 | -0.38867 | 35941 ft | 439 kts | 92° |
| 2026-05-07 18:34 | 43.32222 | -0.34667 | 36118 ft | 439 kts | 92° |
| 2026-05-07 18:34 | 43.32098 | -0.30457 | 36286 ft | 439 kts | 92° |
| 2026-05-07 18:34 | 43.31973 | -0.26308 | 36439 ft | 438 kts | 92° |
| 2026-05-07 18:35 | 43.31846 | -0.22124 | 36585 ft | 438 kts | 92° |
| 2026-05-07 18:35 | 43.31717 | -0.17946 | 36724 ft | 438 kts | 92° |
| 2026-05-07 18:35 | 43.31620 | -0.13805 | 36854 ft | 438 kts | 90° |
| 2026-05-07 18:35 | 43.31654 | -0.09644 | 36971 ft | 439 kts | 89° |
| 2026-05-07 18:36 | 43.31729 | -0.05428 | 36997 ft | 440 kts | 88° |
| 2026-05-07 18:36 | 43.31885 | 0.02932 | 37001 ft | 440 kts | 88° |
| 2026-05-07 18:37 | 43.32033 | 0.11341 | 37002 ft | 440 kts | 88° |
| 2026-05-07 18:37 | 43.32172 | 0.19715 | 37002 ft | 440 kts | 89° |
| 2026-05-07 18:38 | 43.32304 | 0.28098 | 37002 ft | 440 kts | 89° |
| 2026-05-07 18:38 | 43.32429 | 0.36504 | 37002 ft | 440 kts | 89° |
| 2026-05-07 18:39 | 43.32548 | 0.44874 | 37003 ft | 440 kts | 89° |
| 2026-05-07 18:39 | 43.32660 | 0.53253 | 37003 ft | 440 kts | 89° |
| 2026-05-07 18:40 | 43.32767 | 0.61606 | 37003 ft | 440 kts | 89° |
| 2026-05-07 18:40 | 43.32867 | 0.70015 | 37002 ft | 440 kts | 89° |
| 2026-05-07 18:41 | 43.32961 | 0.78382 | 37002 ft | 440 kts | 89° |
| 2026-05-07 18:41 | 43.33048 | 0.86766 | 37002 ft | 440 kts | 89° |
| 2026-05-07 18:42 | 43.33130 | 0.95114 | 37002 ft | 440 kts | 89° |
| 2026-05-07 18:42 | 43.33207 | 1.03483 | 37002 ft | 440 kts | 89° |
| 2026-05-07 18:43 | 43.33277 | 1.11873 | 37002 ft | 440 kts | 89° |
| 2026-05-07 18:43 | 43.33340 | 1.20258 | 37002 ft | 439 kts | 89° |
| 2026-05-07 18:44 | 43.33398 | 1.28622 | 37002 ft | 439 kts | 89° |
| 2026-05-07 18:44 | 43.33450 | 1.36946 | 37002 ft | 439 kts | 89° |
| 2026-05-07 18:45 | 43.33495 | 1.45361 | 37003 ft | 439 kts | 89° |
| 2026-05-07 18:45 | 43.33535 | 1.53722 | 37003 ft | 439 kts | 89° |
| 2026-05-07 18:46 | 43.33568 | 1.62060 | 37003 ft | 439 kts | 89° |
| 2026-05-07 18:46 | 43.33596 | 1.70465 | 37002 ft | 439 kts | 90° |
| 2026-05-07 18:47 | 43.33617 | 1.78828 | 37002 ft | 439 kts | 90° |
| 2026-05-07 18:47 | 43.33631 | 1.87160 | 37002 ft | 439 kts | 90° |
| 2026-05-07 18:48 | 43.33603 | 1.95535 | 37002 ft | 439 kts | 91° |
| 2026-05-07 18:48 | 43.33524 | 2.03908 | 37002 ft | 439 kts | 91° |
| 2026-05-07 18:49 | 43.33442 | 2.12297 | 37002 ft | 439 kts | 90° |
| 2026-05-07 18:49 | 43.33358 | 2.20648 | 37002 ft | 439 kts | 90° |
| 2026-05-07 18:50 | 43.33269 | 2.28992 | 37002 ft | 439 kts | 90° |
| 2026-05-07 18:50 | 43.33174 | 2.37331 | 37002 ft | 439 kts | 90° |
| 2026-05-07 18:51 | 43.33073 | 2.45679 | 37003 ft | 439 kts | 90° |
| 2026-05-07 18:51 | 43.32966 | 2.54066 | 37003 ft | 439 kts | 90° |
| 2026-05-07 18:52 | 43.32854 | 2.62412 | 37003 ft | 439 kts | 90° |
| 2026-05-07 18:52 | 43.32734 | 2.70809 | 37002 ft | 439 kts | 91° |
| 2026-05-07 18:53 | 43.32610 | 2.79119 | 37002 ft | 439 kts | 91° |
| 2026-05-07 18:53 | 43.32478 | 2.87484 | 37002 ft | 439 kts | 91° |
| 2026-05-07 18:54 | 43.32341 | 2.95835 | 37002 ft | 439 kts | 91° |
| 2026-05-07 18:54 | 43.32199 | 3.04174 | 37002 ft | 438 kts | 91° |
| 2026-05-07 18:55 | 43.32049 | 3.12562 | 37002 ft | 438 kts | 91° |
| 2026-05-07 18:55 | 43.31894 | 3.20884 | 37002 ft | 438 kts | 91° |
| 2026-05-07 18:56 | 43.31733 | 3.29236 | 37002 ft | 438 kts | 91° |
| 2026-05-07 18:56 | 43.31565 | 3.37580 | 37002 ft | 438 kts | 91° |
| 2026-05-07 18:57 | 43.31393 | 3.45912 | 37003 ft | 438 kts | 91° |
| 2026-05-07 18:57 | 43.31212 | 3.54301 | 37003 ft | 438 kts | 91° |
| 2026-05-07 18:58 | 43.31027 | 3.62614 | 37003 ft | 438 kts | 91° |
| 2026-05-07 18:58 | 43.30835 | 3.70967 | 37002 ft | 438 kts | 92° |
| 2026-05-07 18:59 | 43.30638 | 3.79289 | 37002 ft | 438 kts | 92° |
| 2026-05-07 18:59 | 43.30434 | 3.87630 | 37002 ft | 438 kts | 92° |
| 2026-05-07 19:00 | 43.30224 | 3.95996 | 37002 ft | 438 kts | 92° |
| 2026-05-07 19:00 | 43.30009 | 4.04275 | 37002 ft | 438 kts | 92° |
| 2026-05-07 19:01 | 43.29786 | 4.12654 | 37002 ft | 438 kts | 92° |
| 2026-05-07 19:01 | 43.29559 | 4.20964 | 37002 ft | 438 kts | 92° |
| 2026-05-07 19:02 | 43.29326 | 4.29295 | 37002 ft | 438 kts | 92° |
| 2026-05-07 19:02 | 43.29085 | 4.37650 | 37003 ft | 438 kts | 92° |
| 2026-05-07 19:03 | 43.28841 | 4.45933 | 37003 ft | 438 kts | 92° |
| 2026-05-07 19:03 | 43.28589 | 4.54252 | 37003 ft | 438 kts | 92° |
| 2026-05-07 19:04 | 43.28331 | 4.62585 | 37003 ft | 438 kts | 92° |
| 2026-05-07 19:04 | 43.28067 | 4.70924 | 37002 ft | 438 kts | 92° |
| 2026-05-07 19:05 | 43.27795 | 4.79266 | 37002 ft | 438 kts | 92° |
| 2026-05-07 19:05 | 43.27520 | 4.87577 | 37002 ft | 438 kts | 92° |
| 2026-05-07 19:06 | 43.27238 | 4.95895 | 37002 ft | 437 kts | 92° |
| 2026-05-07 19:06 | 43.26805 | 5.08337 | 37002 ft | 437 kts | 92° |
| 2026-05-07 19:07 | 43.26509 | 5.16648 | 37002 ft | 437 kts | 92° |
| 2026-05-07 19:07 | 43.26206 | 5.24963 | 37002 ft | 437 kts | 92° |
| 2026-05-07 19:08 | 43.25895 | 5.33313 | 37003 ft | 437 kts | 92° |
| 2026-05-07 19:08 | 43.25582 | 5.41583 | 37003 ft | 437 kts | 92° |
| 2026-05-07 19:09 | 43.25260 | 5.49917 | 37003 ft | 437 kts | 92° |
| 2026-05-07 19:09 | 43.24933 | 5.58222 | 37003 ft | 437 kts | 92° |
| 2026-05-07 19:10 | 43.24602 | 5.66498 | 37003 ft | 437 kts | 93° |
| 2026-05-07 19:10 | 43.24262 | 5.74830 | 37002 ft | 437 kts | 93° |
| 2026-05-07 19:11 | 43.23917 | 5.83125 | 37002 ft | 437 kts | 93° |
| 2026-05-07 19:11 | 43.23566 | 5.91437 | 37002 ft | 437 kts | 93° |
| 2026-05-07 19:12 | 43.23212 | 5.99702 | 37002 ft | 437 kts | 93° |
| 2026-05-07 19:12 | 43.22850 | 6.07990 | 37002 ft | 437 kts | 93° |
| 2026-05-07 19:13 | 43.22566 | 6.16281 | 37002 ft | 437 kts | 91° |
| 2026-05-07 19:13 | 43.22453 | 6.24615 | 37002 ft | 437 kts | 91° |
| 2026-05-07 19:14 | 43.22342 | 6.32913 | 37003 ft | 437 kts | 91° |
| 2026-05-07 19:14 | 43.22219 | 6.41197 | 37003 ft | 437 kts | 91° |
| 2026-05-07 19:15 | 43.22101 | 6.49544 | 37003 ft | 437 kts | 91° |
| 2026-05-07 19:15 | 43.21950 | 6.57791 | 37002 ft | 437 kts | 93° |
| 2026-05-07 19:16 | 43.21294 | 6.66093 | 37003 ft | 437 kts | 99° |
| 2026-05-07 19:16 | 43.20368 | 6.74285 | 37002 ft | 437 kts | 99° |
| 2026-05-07 19:17 | 43.19436 | 6.82471 | 37002 ft | 436 kts | 99° |
| 2026-05-07 19:17 | 43.18505 | 6.90641 | 37002 ft | 436 kts | 99° |
| 2026-05-07 19:18 | 43.17567 | 6.98836 | 37002 ft | 436 kts | 99° |
| 2026-05-07 19:18 | 43.16624 | 7.07019 | 37002 ft | 436 kts | 99° |
| 2026-05-07 19:19 | 43.15667 | 7.15247 | 37002 ft | 436 kts | 99° |
| 2026-05-07 19:19 | 43.14711 | 7.23417 | 37003 ft | 436 kts | 99° |
| 2026-05-07 19:20 | 43.13751 | 7.31586 | 37003 ft | 436 kts | 99° |
| 2026-05-07 19:20 | 43.12783 | 7.39771 | 37003 ft | 436 kts | 99° |
| 2026-05-07 19:21 | 43.11810 | 7.47943 | 37003 ft | 436 kts | 99° |
| 2026-05-07 19:21 | 43.10832 | 7.56100 | 37003 ft | 436 kts | 99° |
| 2026-05-07 19:22 | 43.09843 | 7.64276 | 37003 ft | 436 kts | 99° |
| 2026-05-07 19:22 | 43.08846 | 7.72431 | 37002 ft | 436 kts | 99° |
| 2026-05-07 19:23 | 43.07844 | 7.80580 | 37002 ft | 436 kts | 99° |
| 2026-05-07 19:23 | 43.06846 | 7.88702 | 37002 ft | 436 kts | 99° |
| 2026-05-07 19:24 | 43.05835 | 7.96897 | 37002 ft | 436 kts | 99° |
| 2026-05-07 19:24 | 43.04827 | 8.05020 | 37002 ft | 436 kts | 99° |
| 2026-05-07 19:25 | 43.03813 | 8.13152 | 37002 ft | 436 kts | 99° |
| 2026-05-07 19:25 | 43.02787 | 8.21320 | 37003 ft | 436 kts | 99° |
| 2026-05-07 19:26 | 43.01828 | 8.29490 | 37002 ft | 436 kts | 96° |
| 2026-05-07 19:26 | 43.01173 | 8.37648 | 37003 ft | 436 kts | 98° |
| 2026-05-07 19:27 | 43.00089 | 8.45813 | 37003 ft | 436 kts | 101° |
| 2026-05-07 19:27 | 42.98940 | 8.53866 | 37003 ft | 436 kts | 101° |
| 2026-05-07 19:28 | 42.97774 | 8.62003 | 37003 ft | 435 kts | 101° |
| 2026-05-07 19:28 | 42.96617 | 8.70056 | 37002 ft | 435 kts | 101° |
| 2026-05-07 19:29 | 42.95446 | 8.78161 | 37002 ft | 435 kts | 101° |
| 2026-05-07 19:29 | 42.94360 | 8.86266 | 37002 ft | 435 kts | 100° |
| 2026-05-07 19:30 | 42.93314 | 8.94367 | 37002 ft | 435 kts | 100° |
| 2026-05-07 19:30 | 42.92228 | 9.02471 | 37002 ft | 435 kts | 100° |
| 2026-05-07 19:31 | 42.91133 | 9.10586 | 37002 ft | 435 kts | 100° |
| 2026-05-07 19:31 | 42.90035 | 9.18682 | 37003 ft | 435 kts | 100° |
| 2026-05-07 19:32 | 42.88936 | 9.26769 | 37002 ft | 435 kts | 100° |
| 2026-05-07 19:32 | 42.87840 | 9.34834 | 37002 ft | 435 kts | 100° |
| 2026-05-07 19:33 | 42.86733 | 9.42930 | 37002 ft | 435 kts | 100° |
| 2026-05-07 19:33 | 42.86021 | 9.51106 | 37001 ft | 435 kts | 90° |
| 2026-05-07 19:34 | 42.86638 | 9.59246 | 37001 ft | 435 kts | 76° |
| 2026-05-07 19:34 | 42.88616 | 9.67027 | 37002 ft | 435 kts | 64° |
| 2026-05-07 19:35 | 42.91502 | 9.74244 | 37003 ft | 435 kts | 60° |
| 2026-05-07 19:35 | 42.94458 | 9.81375 | 37003 ft | 435 kts | 60° |
| 2026-05-07 19:36 | 42.97409 | 9.88570 | 37002 ft | 435 kts | 61° |
| 2026-05-07 19:36 | 43.00348 | 9.95783 | 37002 ft | 435 kts | 61° |
| 2026-05-07 19:37 | 43.03272 | 10.02989 | 37002 ft | 435 kts | 61° |
| 2026-05-07 19:37 | 43.06185 | 10.10189 | 37002 ft | 435 kts | 61° |
| 2026-05-07 19:38 | 43.09094 | 10.17400 | 37002 ft | 435 kts | 61° |
| 2026-05-07 19:38 | 43.11995 | 10.24609 | 37002 ft | 435 kts | 61° |
| 2026-05-07 19:39 | 43.14899 | 10.31842 | 37003 ft | 435 kts | 61° |
| 2026-05-07 19:39 | 43.17806 | 10.39098 | 37003 ft | 434 kts | 61° |
| 2026-05-07 19:40 | 43.20703 | 10.46347 | 37003 ft | 434 kts | 61° |
| 2026-05-07 19:40 | 43.23585 | 10.53579 | 37003 ft | 434 kts | 61° |
| 2026-05-07 19:41 | 43.26377 | 10.60915 | 37002 ft | 434 kts | 65° |
| 2026-05-07 19:41 | 43.28589 | 10.68570 | 37002 ft | 434 kts | 72° |
| 2026-05-07 19:42 | 43.30180 | 10.76544 | 37003 ft | 434 kts | 77° |
| 2026-05-07 19:42 | 43.31572 | 10.84618 | 37002 ft | 434 kts | 77° |
| 2026-05-07 19:43 | 43.32948 | 10.92624 | 37002 ft | 434 kts | 77° |
| 2026-05-07 19:43 | 43.34335 | 11.00691 | 37002 ft | 434 kts | 77° |
| 2026-05-07 19:44 | 43.35717 | 11.08752 | 37002 ft | 434 kts | 77° |
| 2026-05-07 19:44 | 43.37088 | 11.16790 | 37002 ft | 434 kts | 77° |
| 2026-05-07 19:45 | 43.38459 | 11.24856 | 37002 ft | 434 kts | 77° |
| 2026-05-07 19:45 | 43.39822 | 11.32914 | 37002 ft | 434 kts | 77° |
| 2026-05-07 19:46 | 43.41180 | 11.40974 | 37002 ft | 434 kts | 77° |
| 2026-05-07 19:46 | 43.42536 | 11.49066 | 37002 ft | 434 kts | 77° |
| 2026-05-07 19:47 | 43.43881 | 11.57126 | 37002 ft | 434 kts | 77° |
| 2026-05-07 19:47 | 43.45221 | 11.65199 | 37002 ft | 434 kts | 77° |
| 2026-05-07 19:48 | 43.46556 | 11.73274 | 37002 ft | 434 kts | 77° |
| 2026-05-07 19:48 | 43.47883 | 11.81337 | 37002 ft | 434 kts | 77° |
| 2026-05-07 19:49 | 43.49203 | 11.89399 | 37002 ft | 434 kts | 77° |
| 2026-05-07 19:49 | 43.50525 | 11.97507 | 37002 ft | 434 kts | 77° |
| 2026-05-07 19:50 | 43.51835 | 12.05575 | 37002 ft | 434 kts | 77° |
| 2026-05-07 19:50 | 43.53141 | 12.13662 | 37002 ft | 434 kts | 77° |
| 2026-05-07 19:51 | 43.54448 | 12.21788 | 37002 ft | 433 kts | 77° |
| 2026-05-07 19:51 | 43.55739 | 12.29866 | 37002 ft | 433 kts | 77° |
| 2026-05-07 19:52 | 43.56977 | 12.37987 | 37002 ft | 433 kts | 79° |
| 2026-05-07 19:52 | 43.58049 | 12.46127 | 37002 ft | 433 kts | 79° |
| 2026-05-07 19:53 | 43.59110 | 12.54297 | 37002 ft | 433 kts | 79° |
| 2026-05-07 19:53 | 43.60165 | 12.62438 | 37002 ft | 433 kts | 79° |
| 2026-05-07 19:54 | 43.61221 | 12.70626 | 37002 ft | 433 kts | 80° |
| 2026-05-07 19:54 | 43.62262 | 12.78739 | 37002 ft | 433 kts | 80° |
| 2026-05-07 19:55 | 43.63306 | 12.86926 | 37002 ft | 433 kts | 80° |
| 2026-05-07 19:55 | 43.64341 | 12.95086 | 37002 ft | 433 kts | 80° |
| 2026-05-07 19:56 | 43.65372 | 13.03256 | 37002 ft | 433 kts | 80° |
| 2026-05-07 19:56 | 43.66396 | 13.11428 | 37002 ft | 433 kts | 80° |
| 2026-05-07 19:57 | 43.67419 | 13.19637 | 37002 ft | 433 kts | 80° |
| 2026-05-07 19:57 | 43.68431 | 13.27810 | 37002 ft | 433 kts | 80° |
| 2026-05-07 19:58 | 43.69434 | 13.35957 | 37002 ft | 433 kts | 80° |
| 2026-05-07 19:58 | 43.70434 | 13.44139 | 37002 ft | 433 kts | 80° |
| 2026-05-07 19:59 | 43.71429 | 13.52324 | 37002 ft | 433 kts | 80° |
| 2026-05-07 19:59 | 43.72416 | 13.60492 | 37002 ft | 433 kts | 80° |
| 2026-05-07 20:00 | 43.73404 | 13.68725 | 37002 ft | 433 kts | 81° |
| 2026-05-07 20:00 | 43.74379 | 13.76892 | 37002 ft | 433 kts | 81° |
| 2026-05-07 20:01 | 43.75348 | 13.85061 | 37002 ft | 433 kts | 81° |
| 2026-05-07 20:01 | 43.76315 | 13.93259 | 37002 ft | 433 kts | 81° |
| 2026-05-07 20:02 | 43.77274 | 14.01450 | 37002 ft | 433 kts | 81° |
| 2026-05-07 20:02 | 43.78233 | 14.09686 | 37002 ft | 433 kts | 81° |
| 2026-05-07 20:03 | 43.79179 | 14.17881 | 37002 ft | 433 kts | 81° |
| 2026-05-07 20:03 | 43.80104 | 14.26059 | 37002 ft | 433 kts | 81° |
| 2026-05-07 20:04 | 43.81024 | 14.34264 | 37002 ft | 433 kts | 81° |
| 2026-05-07 20:04 | 43.81939 | 14.42468 | 37002 ft | 433 kts | 81° |
| 2026-05-07 20:05 | 43.82850 | 14.50680 | 37002 ft | 433 kts | 81° |
| 2026-05-07 20:05 | 43.83762 | 14.58947 | 37002 ft | 433 kts | 81° |
| 2026-05-07 20:06 | 43.84660 | 14.67158 | 37002 ft | 433 kts | 82° |
| 2026-05-07 20:06 | 43.85554 | 14.75371 | 37002 ft | 433 kts | 82° |
| 2026-05-07 20:07 | 43.86441 | 14.83590 | 37003 ft | 433 kts | 82° |
| 2026-05-07 20:07 | 43.87328 | 14.91857 | 37002 ft | 434 kts | 82° |
| 2026-05-07 20:08 | 43.88206 | 15.00103 | 37002 ft | 434 kts | 82° |
| 2026-05-07 20:08 | 43.89079 | 15.08352 | 37002 ft | 434 kts | 82° |
| 2026-05-07 20:09 | 43.89941 | 15.16573 | 37002 ft | 434 kts | 82° |
| 2026-05-07 20:10 | 43.91235 | 15.29008 | 37002 ft | 435 kts | 82° |
| 2026-05-07 20:10 | 43.92090 | 15.37300 | 37002 ft | 435 kts | 82° |
| 2026-05-07 20:11 | 43.92934 | 15.45547 | 37002 ft | 434 kts | 82° |
| 2026-05-07 20:11 | 43.93773 | 15.53806 | 37002 ft | 434 kts | 82° |
| 2026-05-07 20:12 | 43.94614 | 15.62139 | 37002 ft | 435 kts | 82° |
| 2026-05-07 20:12 | 43.95442 | 15.70415 | 37002 ft | 435 kts | 82° |
| 2026-05-07 20:13 | 43.96265 | 15.78692 | 37003 ft | 435 kts | 82° |
| 2026-05-07 20:13 | 43.97084 | 15.87005 | 37003 ft | 435 kts | 82° |
| 2026-05-07 20:14 | 43.97897 | 15.95303 | 37003 ft | 435 kts | 82° |
| 2026-05-07 20:14 | 43.98702 | 16.03585 | 37002 ft | 435 kts | 82° |
| 2026-05-07 20:15 | 43.99505 | 16.11916 | 37002 ft | 435 kts | 82° |
| 2026-05-07 20:15 | 44.00304 | 16.20260 | 37002 ft | 435 kts | 82° |
| 2026-05-07 20:16 | 44.01092 | 16.28567 | 37002 ft | 436 kts | 82° |
| 2026-05-07 20:16 | 44.01874 | 16.36862 | 37002 ft | 436 kts | 82° |
| 2026-05-07 20:17 | 44.02651 | 16.45182 | 37002 ft | 436 kts | 82° |
| 2026-05-07 20:17 | 44.03354 | 16.53554 | 37002 ft | 436 kts | 84° |
| 2026-05-07 20:18 | 44.03932 | 16.61894 | 37001 ft | 436 kts | 84° |
| 2026-05-07 20:18 | 44.04511 | 16.70258 | 37002 ft | 437 kts | 84° |
| 2026-05-07 20:19 | 44.05091 | 16.78626 | 37003 ft | 437 kts | 84° |
| 2026-05-07 20:19 | 44.05671 | 16.87037 | 37003 ft | 437 kts | 84° |
| 2026-05-07 20:20 | 44.06244 | 16.95414 | 37002 ft | 437 kts | 84° |
| 2026-05-07 20:20 | 44.06812 | 17.03810 | 37002 ft | 437 kts | 84° |
| 2026-05-07 20:21 | 44.07372 | 17.12174 | 37002 ft | 437 kts | 84° |
| 2026-05-07 20:21 | 44.07928 | 17.20568 | 37002 ft | 437 kts | 84° |
| 2026-05-07 20:22 | 44.08479 | 17.28985 | 37002 ft | 437 kts | 84° |
| 2026-05-07 20:22 | 44.09022 | 17.37381 | 37002 ft | 437 kts | 84° |
| 2026-05-07 20:23 | 44.09558 | 17.45758 | 37002 ft | 437 kts | 84° |
| 2026-05-07 20:23 | 44.10092 | 17.54202 | 37002 ft | 438 kts | 84° |
| 2026-05-07 20:24 | 44.10617 | 17.62603 | 37003 ft | 438 kts | 84° |
| 2026-05-07 20:24 | 44.11137 | 17.71016 | 37002 ft | 438 kts | 85° |
| 2026-05-07 20:25 | 44.11651 | 17.79443 | 37002 ft | 438 kts | 85° |
| 2026-05-07 20:25 | 44.12157 | 17.87817 | 37002 ft | 438 kts | 85° |
| 2026-05-07 20:26 | 44.12661 | 17.96293 | 37002 ft | 438 kts | 85° |
| 2026-05-07 20:26 | 44.13132 | 18.04691 | 37002 ft | 438 kts | 86° |
| 2026-05-07 20:27 | 44.13567 | 18.13120 | 37002 ft | 438 kts | 86° |
| 2026-05-07 20:27 | 44.14001 | 18.21610 | 37002 ft | 438 kts | 86° |
| 2026-05-07 20:28 | 44.14428 | 18.30020 | 37003 ft | 438 kts | 85° |
| 2026-05-07 20:28 | 44.14851 | 18.38451 | 37003 ft | 439 kts | 85° |
| 2026-05-07 20:29 | 44.15270 | 18.46955 | 37003 ft | 439 kts | 85° |
| 2026-05-07 20:29 | 44.15681 | 18.55387 | 37003 ft | 439 kts | 85° |
| 2026-05-07 20:30 | 44.16087 | 18.63872 | 37003 ft | 439 kts | 85° |
| 2026-05-07 20:30 | 44.16483 | 18.72281 | 37002 ft | 439 kts | 86° |
| 2026-05-07 20:31 | 44.16876 | 18.80763 | 37002 ft | 439 kts | 86° |
| 2026-05-07 20:31 | 44.17263 | 18.89231 | 37002 ft | 439 kts | 86° |
| 2026-05-07 20:32 | 44.17644 | 18.97700 | 37002 ft | 439 kts | 86° |
| 2026-05-07 20:32 | 44.18019 | 19.06185 | 37002 ft | 440 kts | 86° |
| 2026-05-07 20:33 | 44.18387 | 19.14662 | 37002 ft | 440 kts | 86° |
| 2026-05-07 20:33 | 44.18751 | 19.23186 | 37002 ft | 440 kts | 86° |
| 2026-05-07 20:34 | 44.19106 | 19.31648 | 37003 ft | 440 kts | 86° |
| 2026-05-07 20:34 | 44.19456 | 19.40120 | 37003 ft | 440 kts | 86° |
| 2026-05-07 20:35 | 44.19801 | 19.48648 | 37003 ft | 440 kts | 86° |
| 2026-05-07 20:35 | 44.20139 | 19.57153 | 37003 ft | 440 kts | 86° |
| 2026-05-07 20:36 | 44.20468 | 19.65602 | 37003 ft | 440 kts | 87° |
| 2026-05-07 20:36 | 44.20795 | 19.74152 | 37002 ft | 441 kts | 87° |
| 2026-05-07 20:37 | 44.21113 | 19.82639 | 37002 ft | 441 kts | 87° |
| 2026-05-07 20:37 | 44.21426 | 19.91139 | 37002 ft | 441 kts | 87° |
| 2026-05-07 20:38 | 44.21733 | 19.99647 | 37002 ft | 441 kts | 87° |
| 2026-05-07 20:38 | 44.22035 | 20.08193 | 37002 ft | 441 kts | 87° |
| 2026-05-07 20:39 | 44.22327 | 20.16673 | 37002 ft | 441 kts | 87° |
| 2026-05-07 20:39 | 44.22706 | 20.25221 | 37002 ft | 441 kts | 86° |
| 2026-05-07 20:40 | 44.23111 | 20.33707 | 37003 ft | 441 kts | 86° |
| 2026-05-07 20:40 | 44.23507 | 20.42244 | 37003 ft | 441 kts | 86° |
| 2026-05-07 20:41 | 44.23892 | 20.50742 | 37003 ft | 442 kts | 86° |
| 2026-05-07 20:41 | 44.24271 | 20.59286 | 37003 ft | 442 kts | 86° |
| 2026-05-07 20:42 | 44.24643 | 20.67850 | 37003 ft | 442 kts | 86° |
| 2026-05-07 20:42 | 44.25008 | 20.76383 | 37002 ft | 442 kts | 86° |
| 2026-05-07 20:43 | 44.25366 | 20.84899 | 37002 ft | 442 kts | 86° |
| 2026-05-07 20:43 | 44.25717 | 20.93417 | 37002 ft | 442 kts | 86° |
| 2026-05-07 20:44 | 44.26064 | 21.01993 | 37002 ft | 442 kts | 86° |
| 2026-05-07 20:44 | 44.26403 | 21.10514 | 37002 ft | 442 kts | 86° |
| 2026-05-07 20:45 | 44.26737 | 21.19068 | 37002 ft | 442 kts | 86° |
| 2026-05-07 20:45 | 44.27063 | 21.27604 | 37002 ft | 443 kts | 86° |
| 2026-05-07 20:46 | 44.27385 | 21.36178 | 37003 ft | 443 kts | 86° |
| 2026-05-07 20:46 | 44.27699 | 21.44729 | 37003 ft | 443 kts | 86° |
| 2026-05-07 20:47 | 44.28006 | 21.53271 | 37003 ft | 443 kts | 86° |
| 2026-05-07 20:47 | 44.28307 | 21.61824 | 37003 ft | 443 kts | 86° |
| 2026-05-07 20:48 | 44.28605 | 21.70452 | 37002 ft | 443 kts | 87° |
| 2026-05-07 20:48 | 44.28893 | 21.79001 | 37002 ft | 443 kts | 87° |
| 2026-05-07 20:49 | 44.29176 | 21.87587 | 37002 ft | 443 kts | 87° |
| 2026-05-07 20:49 | 44.29453 | 21.96165 | 37002 ft | 443 kts | 87° |
| 2026-05-07 20:50 | 44.29724 | 22.04751 | 37002 ft | 444 kts | 87° |
| 2026-05-07 20:50 | 44.29986 | 22.13283 | 37002 ft | 444 kts | 87° |
| 2026-05-07 20:51 | 44.30244 | 22.21865 | 37002 ft | 444 kts | 87° |
| 2026-05-07 20:51 | 44.30496 | 22.30454 | 37002 ft | 444 kts | 87° |
| 2026-05-07 20:52 | 44.30741 | 22.39037 | 37002 ft | 444 kts | 87° |
| 2026-05-07 20:52 | 44.30980 | 22.47632 | 37003 ft | 444 kts | 87° |
| 2026-05-07 20:53 | 44.31213 | 22.56246 | 37002 ft | 444 kts | 87° |
| 2026-05-07 20:53 | 44.31517 | 22.64858 | 37003 ft | 444 kts | 86° |
| 2026-05-07 20:54 | 44.31836 | 22.73474 | 37002 ft | 444 kts | 87° |
| 2026-05-07 20:54 | 44.32143 | 22.82056 | 37002 ft | 445 kts | 87° |
| 2026-05-07 20:55 | 44.32443 | 22.90672 | 37002 ft | 445 kts | 87° |
| 2026-05-07 20:55 | 44.32740 | 22.99227 | 37001 ft | 445 kts | 86° |
| 2026-05-07 20:56 | 44.33427 | 23.07803 | 36545 ft | 443 kts | 82° |
| 2026-05-07 20:56 | 44.33831 | 23.12107 | 35623 ft | 451 kts | 82° |
| 2026-05-07 20:56 | 44.34233 | 23.16450 | 34654 ft | 458 kts | 82° |
| 2026-05-07 20:56 | 44.34634 | 23.20853 | 33809 ft | 461 kts | 83° |
| 2026-05-07 20:57 | 44.35029 | 23.25277 | 33034 ft | 462 kts | 83° |
| 2026-05-07 20:57 | 44.35422 | 23.29735 | 32320 ft | 461 kts | 83° |
| 2026-05-07 20:57 | 44.35804 | 23.34114 | 31753 ft | 457 kts | 83° |
| 2026-05-07 20:57 | 44.36184 | 23.38504 | 31238 ft | 453 kts | 83° |
| 2026-05-07 20:58 | 44.36557 | 23.42836 | 30746 ft | 448 kts | 83° |
| 2026-05-07 20:58 | 44.36920 | 23.47076 | 30270 ft | 443 kts | 83° |
| 2026-05-07 20:58 | 44.37283 | 23.51339 | 29791 ft | 439 kts | 83° |
| 2026-05-07 20:58 | 44.37639 | 23.55536 | 29318 ft | 435 kts | 83° |
| 2026-05-07 20:59 | 44.37992 | 23.59720 | 28844 ft | 431 kts | 83° |
| 2026-05-07 20:59 | 44.38340 | 23.63873 | 28372 ft | 427 kts | 83° |
| 2026-05-07 20:59 | 44.38684 | 23.67981 | 27903 ft | 423 kts | 83° |
| 2026-05-07 20:59 | 44.39022 | 23.72041 | 27437 ft | 419 kts | 83° |
| 2026-05-07 21:00 | 44.39353 | 23.76032 | 26977 ft | 416 kts | 83° |
| 2026-05-07 21:00 | 44.39684 | 23.80048 | 26514 ft | 412 kts | 83° |
| 2026-05-07 21:00 | 44.40007 | 23.83981 | 26057 ft | 409 kts | 83° |
| 2026-05-07 21:00 | 44.40330 | 23.87920 | 25599 ft | 406 kts | 83° |
| 2026-05-07 21:01 | 44.40647 | 23.91816 | 25142 ft | 402 kts | 83° |
| 2026-05-07 21:01 | 44.40960 | 23.95676 | 24690 ft | 399 kts | 83° |
| 2026-05-07 21:01 | 44.41271 | 23.99531 | 24232 ft | 396 kts | 83° |
| 2026-05-07 21:01 | 44.41576 | 24.03314 | 23785 ft | 393 kts | 83° |
| 2026-05-07 21:02 | 44.41876 | 24.07065 | 23337 ft | 390 kts | 83° |
| 2026-05-07 21:02 | 44.42175 | 24.10811 | 22889 ft | 387 kts | 83° |
| 2026-05-07 21:02 | 44.42473 | 24.14558 | 22438 ft | 384 kts | 83° |
| 2026-05-07 21:02 | 44.42765 | 24.18255 | 21991 ft | 381 kts | 83° |
| 2026-05-07 21:03 | 44.43051 | 24.21892 | 21550 ft | 379 kts | 83° |
| 2026-05-07 21:03 | 44.43341 | 24.25576 | 21102 ft | 376 kts | 83° |
| 2026-05-07 21:03 | 44.43622 | 24.29181 | 20662 ft | 374 kts | 83° |
| 2026-05-07 21:03 | 44.43902 | 24.32774 | 20221 ft | 371 kts | 83° |
| 2026-05-07 21:04 | 44.44183 | 24.36410 | 19773 ft | 369 kts | 83° |
| 2026-05-07 21:04 | 44.44455 | 24.39929 | 19338 ft | 366 kts | 83° |
| 2026-05-07 21:04 | 44.44725 | 24.43436 | 18904 ft | 364 kts | 83° |
| 2026-05-07 21:04 | 44.44994 | 24.46958 | 18466 ft | 362 kts | 83° |
| 2026-05-07 21:05 | 44.45258 | 24.50425 | 18033 ft | 359 kts | 83° |
| 2026-05-07 21:05 | 44.45522 | 24.53890 | 17599 ft | 357 kts | 83° |
| 2026-05-07 21:05 | 44.45780 | 24.57314 | 17170 ft | 355 kts | 83° |
| 2026-05-07 21:05 | 44.46039 | 24.60753 | 16738 ft | 352 kts | 83° |
| 2026-05-07 21:06 | 44.46292 | 24.64120 | 16313 ft | 350 kts | 83° |
| 2026-05-07 21:06 | 44.46547 | 24.67531 | 15882 ft | 348 kts | 84° |
| 2026-05-07 21:06 | 44.46793 | 24.70839 | 15462 ft | 346 kts | 84° |
| 2026-05-07 21:06 | 44.47041 | 24.74185 | 15037 ft | 344 kts | 84° |
| 2026-05-07 21:07 | 44.47284 | 24.77485 | 14616 ft | 341 kts | 84° |
| 2026-05-07 21:07 | 44.47528 | 24.80801 | 14192 ft | 339 kts | 84° |
| 2026-05-07 21:07 | 44.47765 | 24.84042 | 13775 ft | 337 kts | 84° |
| 2026-05-07 21:07 | 44.48002 | 24.87292 | 13357 ft | 335 kts | 84° |
| 2026-05-07 21:08 | 44.48237 | 24.90533 | 12939 ft | 333 kts | 84° |
| 2026-05-07 21:08 | 44.48468 | 24.93730 | 12526 ft | 331 kts | 84° |
| 2026-05-07 21:08 | 44.48700 | 24.96938 | 12111 ft | 329 kts | 84° |
| 2026-05-07 21:08 | 44.48928 | 25.00117 | 11698 ft | 327 kts | 84° |
| 2026-05-07 21:09 | 44.49153 | 25.03260 | 11289 ft | 325 kts | 84° |
| 2026-05-07 21:09 | 44.49375 | 25.06379 | 10882 ft | 323 kts | 84° |
| 2026-05-07 21:09 | 44.49597 | 25.09513 | 10472 ft | 321 kts | 84° |
| 2026-05-07 21:09 | 44.49814 | 25.12583 | 10155 ft | 315 kts | 84° |
| 2026-05-07 21:10 | 44.50025 | 25.15581 | 10073 ft | 301 kts | 84° |
| 2026-05-07 21:10 | 44.50225 | 25.18436 | 10000 ft | 287 kts | 84° |
| 2026-05-07 21:10 | 44.50417 | 25.21176 | 9646 ft | 286 kts | 84° |
| 2026-05-07 21:10 | 44.50611 | 25.23954 | 9269 ft | 285 kts | 84° |
| 2026-05-07 21:11 | 44.50800 | 25.26679 | 8914 ft | 283 kts | 84° |
| 2026-05-07 21:11 | 44.50991 | 25.29440 | 8561 ft | 281 kts | 84° |
| 2026-05-07 21:11 | 44.51360 | 25.34811 | 7879 ft | 276 kts | 84° |
| 2026-05-07 21:12 | 44.51545 | 25.37500 | 7538 ft | 274 kts | 84° |
| 2026-05-07 21:12 | 44.51724 | 25.40130 | 7204 ft | 272 kts | 84° |
| 2026-05-07 21:12 | 44.51904 | 25.42773 | 6869 ft | 270 kts | 84° |
| 2026-05-07 21:12 | 44.52079 | 25.45357 | 6541 ft | 268 kts | 84° |
| 2026-05-07 21:13 | 44.52255 | 25.47960 | 6210 ft | 266 kts | 84° |
| 2026-05-07 21:13 | 44.52428 | 25.50536 | 5882 ft | 265 kts | 84° |
| 2026-05-07 21:13 | 44.52598 | 25.53078 | 5558 ft | 263 kts | 84° |
| 2026-05-07 21:13 | 44.52769 | 25.55629 | 5232 ft | 261 kts | 84° |
| 2026-05-07 21:14 | 44.52936 | 25.58143 | 4912 ft | 260 kts | 84° |
| 2026-05-07 21:14 | 44.53103 | 25.60659 | 4591 ft | 258 kts | 84° |
| 2026-05-07 21:14 | 44.53262 | 25.63133 | 4274 ft | 257 kts | 84° |
| 2026-05-07 21:14 | 44.53412 | 25.65631 | 3955 ft | 255 kts | 85° |
| 2026-05-07 21:15 | 44.53567 | 25.68103 | 3640 ft | 254 kts | 85° |
| 2026-05-07 21:15 | 44.53729 | 25.70553 | 3326 ft | 253 kts | 85° |
| 2026-05-07 21:15 | 44.53898 | 25.72988 | 3014 ft | 251 kts | 84° |
| 2026-05-07 21:15 | 44.54072 | 25.75432 | 2701 ft | 250 kts | 84° |
| 2026-05-07 21:16 | 44.54246 | 25.77838 | 2465 ft | 245 kts | 84° |
| 2026-05-07 21:16 | 44.54415 | 25.80139 | 2442 ft | 230 kts | 84° |
| 2026-05-07 21:16 | 44.54577 | 25.82346 | 2441 ft | 224 kts | 84° |
| 2026-05-07 21:16 | 44.54732 | 25.84441 | 2480 ft | 206 kts | 84° |
| 2026-05-07 21:17 | 44.54871 | 25.86329 | 2488 ft | 185 kts | 84° |
| 2026-05-07 21:17 | 44.54997 | 25.88025 | 2428 ft | 162 kts | 84° |
| 2026-05-07 21:17 | 44.55109 | 25.89542 | 2462 ft | 153 kts | 84° |
| 2026-05-07 21:17 | 44.55217 | 25.90996 | 2410 ft | 146 kts | 84° |
| 2026-05-07 21:18 | 44.55321 | 25.92395 | 2234 ft | 144 kts | 84° |
| 2026-05-07 21:18 | 44.55425 | 25.93784 | 2061 ft | 143 kts | 84° |
| 2026-05-07 21:18 | 44.55528 | 25.95177 | 1890 ft | 143 kts | 84° |
| 2026-05-07 21:18 | 44.55632 | 25.96566 | 1720 ft | 143 kts | 84° |
| 2026-05-07 21:19 | 44.55735 | 25.97947 | 1551 ft | 142 kts | 84° |
| 2026-05-07 21:19 | 44.55838 | 25.99334 | 1381 ft | 142 kts | 84° |
| 2026-05-07 21:19 | 44.55942 | 26.00715 | 1212 ft | 142 kts | 84° |
| 2026-05-07 21:19 | 44.56044 | 26.02081 | 1044 ft | 141 kts | 84° |
| 2026-05-07 21:20 | 44.56146 | 26.03443 | 876 ft | 141 kts | 84° |
| 2026-05-07 21:20 | 44.56249 | 26.04810 | 706 ft | 141 kts | 84° |
| 2026-05-07 21:20 | 44.56355 | 26.06171 | 527 ft | 140 kts | 83° |
| 2026-05-07 21:20 | 44.56456 | 26.07538 | 370 ft | 140 kts | 83° |
| 2026-05-07 21:21 | 44.56551 | 26.08800 | 320 ft | 109 kts | 83° |
| 2026-05-07 21:21 | 44.56612 | 26.09622 | 320 ft | 63 kts | 84° |
| 2026-05-07 21:21 | 44.56652 | 26.10135 | 320 ft | 42 kts | 84° |
| 2026-05-07 21:21 | 44.56676 | 26.10473 | 320 ft | 30 kts | 83° |
| 2026-05-07 21:22 | 44.56702 | 26.10719 | 320 ft | 19 kts | 58° |
| 2026-05-07 21:22 | 44.56814 | 26.10755 | 320 ft | 17 kts | 353° |
| 2026-05-07 21:22 | 44.56930 | 26.10737 | 320 ft | 16 kts | 354° |
| 2026-05-07 21:22 | 44.57024 | 26.10665 | 320 ft | 15 kts | 307° |
| 2026-05-07 21:23 | 44.57069 | 26.10527 | 320 ft | 15 kts | 275° |
| 2026-05-07 21:23 | 44.57058 | 26.10366 | 320 ft | 17 kts | 263° |
| 2026-05-07 21:23 | 44.57044 | 26.10195 | 320 ft | 17 kts | 263° |
| 2026-05-07 21:23 | 44.57031 | 26.10031 | 320 ft | 16 kts | 264° |
| 2026-05-07 21:24 | 44.57021 | 26.09870 | 320 ft | 16 kts | 264° |
| 2026-05-07 21:24 | 44.57009 | 26.09711 | 320 ft | 15 kts | 262° |
| 2026-05-07 21:24 | 44.56996 | 26.09556 | 320 ft | 18 kts | 264° |
| 2026-05-07 21:24 | 44.56983 | 26.09374 | 320 ft | 18 kts | 263° |
| 2026-05-07 21:25 | 44.56970 | 26.09200 | 320 ft | 17 kts | 265° |
| 2026-05-07 21:25 | 44.56956 | 26.09030 | 320 ft | 17 kts | 263° |
| 2026-05-07 21:25 | 44.56943 | 26.08864 | 320 ft | 16 kts | 263° |
| 2026-05-07 21:25 | 44.56929 | 26.08703 | 320 ft | 16 kts | 263° |
| 2026-05-07 21:26 | 44.56906 | 26.08552 | 320 ft | 15 kts | 249° |
| 2026-05-07 21:26 | 44.56910 | 26.08410 | 320 ft | 14 kts | 319° |
| 2026-05-07 21:26 | 44.56953 | 26.08306 | 320 ft | 13 kts | 266° |
| 2026-05-07 21:26 | 44.56948 | 26.08210 | 320 ft | 3 kts | 310° |
| 2026-05-07 21:27 | 44.56977 | 26.08203 | 320 ft | 4 kts | 354° |
| 2026-05-07 21:27 | 44.57012 | 26.08197 | 320 ft | 5 kts | 353° |
| 2026-05-07 21:27 | 44.57026 | 26.08195 | 320 ft | 0 kts | 353° |